Date,TemperatureHighF,TemperatureAvgF,TemperatureLowF,DewpointHighF,DewpointAvgF,DewpointLowF,HumidityHigh,HumidityAvg,HumidityLow,PressureMaxIn,PressureMinIn,WindSpeedMaxMPH,WindSpeedAvgMPH,GustSpeedMaxMPH,PrecipitationSumIn
2013-3-5,48.0,45.7,44.3,45.9,45.0,44.3,100,98,91,29.54,29.37,2,0,4,0.21
2013-3-6,48.6,43.3,39.8,46.7,42.2,38.5,100,96,87,29.72,29.30,6,1,6,0.37
2013-3-7,55.5,43.5,32.9,43.1,36.3,32.2,100,80,42,29.80,29.72,4,1,5,0.01
2013-3-8,55.4,46.7,37.3,45.7,40.8,37.2,100,81,58,29.94,29.78,3,1,3,0.00
2013-3-9,59.6,44.8,33.3,44.6,37.9,33.0,100,80,39,30.24,29.96,2,0,4,0.02
2013-3-10,57.5,46.4,34.5,48.1,41.3,33.5,97,83,61,30.24,30.14,3,0,5,0.00
2013-3-11,59.4,51.2,48.3,52.6,48.4,46.1,95,91,76,30.16,30.00,2,0,2,0.04
2013-3-12,61.8,52.2,44.9,53.3,48.8,44.6,100,89,71,30.00,29.91,3,1,4,0.00
2013-3-13,65.8,57.1,47.9,54.1,50.4,46.2,97,79,57,29.97,29.83,3,1,6,0.00
2013-3-14,59.8,53.4,47.3,49.9,48.0,44.8,95,83,60,29.97,29.80,8,1,8,0.00
2013-3-15,65.5,56.2,48.8,53.4,50.4,47.2,94,82,57,29.98,29.91,3,1,4,0.02
2013-3-16,51.4,48.2,41.8,49.3,45.5,38.8,96,90,81,29.95,29.80,10,2,10,0.16
2013-3-17,48.7,42.7,36.5,40.3,37.6,35.5,97,83,67,30.07,29.95,5,1,5,0.01
2013-3-18,53.1,43.1,31.9,40.1,36.4,31.4,98,79,50,30.05,29.87,5,1,9,0.00
2013-3-19,48.9,43.6,38.5,48.9,41.2,35.6,100,91,83,29.86,29.43,3,0,4,0.38
2013-3-20,52.7,48.7,39.1,51.7,45.6,37.7,100,89,70,29.95,29.35,12,4,16,0.50
2013-3-21,49.1,41.6,37.0,41.8,37.5,35.0,97,86,65,30.08,29.96,7,2,7,0.12
2013-3-22,47.3,39.9,34.7,38.8,36.1,33.9,98,87,64,30.14,30.07,4,1,5,0.06
2013-3-23,48.8,38.7,31.8,39.2,34.9,31.6,99,87,58,30.13,30.01,4,1,6,0.00
2013-3-24,53.9,47.5,36.6,42.3,40.0,35.6,96,76,58,29.97,29.82,5,2,5,0.00
2013-3-25,56.9,48.1,40.1,46.9,40.7,37.1,92,77,57,29.82,29.67,5,1,6,0.00
2013-3-26,56.8,49.7,45.2,48.6,46.4,43.5,98,89,71,29.77,29.71,1,0,2,0.04
2013-3-27,62.5,51.0,43.8,52.6,47.9,43.5,100,90,66,29.75,29.65,3,0,3,0.08
2013-3-28,65.0,54.2,48.4,54.4,50.3,47.8,99,88,54,29.88,29.74,4,1,8,0.10
2013-3-29,66.4,56.1,48.6,55.3,51.4,48.0,99,85,64,29.95,29.86,4,1,6,0.08
2013-3-30,72.3,57.6,45.8,56.8,51.2,45.3,99,81,54,29.91,29.68,6,2,9,0.06
2013-3-31,74.0,60.0,49.5,56.8,52.4,47.6,94,78,50,29.77,29.67,6,1,8,0.02
2013-4-1,62.3,56.3,51.7,54.0,52.6,49.7,94,88,74,29.94,29.77,2,1,3,0.04
2013-4-2,66.5,57.8,48.7,54.3,51.2,47.6,96,80,59,29.97,29.86,3,1,3,0.00
2013-4-3,62.7,52.7,43.3,55.5,49.9,43.0,99,91,74,29.91,29.66,4,1,4,0.00
2013-4-4,62.8,57.1,53.3,58.6,54.7,52.7,98,92,74,29.66,29.46,9,2,12,0.09
2013-4-7,52.4,49.5,47.7,47.7,44.6,41.5,91,83,68,29.74,29.57,11,6,13,0.07
2013-4-8,54.2,50.3,43.6,48.4,45.1,41.1,91,82,70,30.13,30.03,4,1,4,0.06
2013-4-9,59.6,48.9,40.5,50.3,44.5,39.5,98,86,66,30.19,30.09,1,0,2,0.00
2013-4-10,63.0,52.1,45.5,55.0,47.6,42.4,96,85,67,30.18,30.03,5,1,9,0.14
2013-4-11,55.9,48.8,40.6,44.2,41.6,39.7,98,78,55,30.19,30.00,5,1,5,0.08
2013-4-12,58.4,47.3,35.3,49.0,42.3,35.0,99,84,60,29.99,29.73,6,1,6,0.04
2013-4-13,53.8,45.3,39.3,44.0,39.9,36.8,94,82,57,29.97,29.81,4,2,8,0.06
2013-4-14,51.2,43.0,39.9,42.5,40.0,37.7,95,89,68,29.96,29.82,5,1,5,0.11
2013-4-15,54.0,49.1,44.0,43.3,41.1,37.6,90,74,61,29.91,29.83,6,2,7,0.03
2013-4-16,52.5,47.4,44.4,43.2,42.2,41.4,92,82,66,30.23,30.14,1,0,1,0.00
2013-4-17,56.6,46.1,36.9,45.3,41.2,36.2,98,84,62,30.30,30.23,1,0,2,0.00
2013-4-18,63.6,52.7,43.0,51.0,45.4,41.6,96,78,52,30.32,30.18,2,0,3,0.05
2013-4-19,63.4,52.9,48.7,53.5,49.5,46.7,97,89,66,30.18,30.05,6,2,6,0.22
2013-4-20,62.6,53.4,46.0,50.2,46.9,43.8,97,80,54,30.19,30.09,3,1,6,0.01
2013-4-21,59.6,51.6,45.8,50.8,46.3,42.9,93,83,66,30.15,30.07,3,1,7,0.00
2013-4-22,65.1,52.4,40.1,47.1,41.2,35.5,96,70,36,30.22,30.12,7,3,11,0.02
2013-4-23,67.8,52.8,38.3,43.4,36.5,32.6,82,57,29,30.17,29.95,6,2,6,0.00
2013-4-24,72.7,61.3,46.9,46.7,40.8,36.6,71,49,28,30.04,29.82,6,3,12,0.01
2013-4-25,74.0,57.9,40.8,54.0,44.7,39.0,96,65,34,29.96,29.83,3,1,4,0.04
2013-4-26,77.6,60.4,43.8,57.1,48.8,40.1,98,69,36,30.07,29.97,3,1,3,0.03
2013-4-27,73.7,58.1,44.5,52.3,45.4,38.6,93,66,35,30.11,30.02,5,1,6,0.04
2013-4-28,67.1,57.3,49.0,51.6,48.5,46.5,93,74,50,30.13,29.97,2,1,3,0.01
2013-4-29,64.1,56.3,50.5,50.4,45.2,37.8,96,69,43,30.02,29.95,4,2,7,0.03
2013-4-30,58.5,49.9,36.1,39.0,37.4,35.1,98,64,46,30.25,30.13,3,1,6,0.00
2013-5-1,67.5,51.1,36.0,45.9,39.1,33.6,92,67,37,30.38,30.23,6,2,9,0.01
2013-5-2,76.7,61.0,45.1,51.1,42.6,37.0,75,53,28,30.38,30.17,5,2,6,0.00
2013-5-3,77.1,61.3,43.8,54.1,45.2,41.1,92,58,37,30.26,30.05,5,2,8,0.00
2013-5-4,81.4,66.8,50.7,54.1,41.3,31.8,76,45,17,30.07,29.80,10,3,12,0.00
2013-5-5,65.8,58.9,54.9,40.3,38.9,37.4,55,48,35,29.81,29.75,6,2,10,0.00
2013-5-7,69.0,66.6,63.7,54.1,52.7,51.7,65,61,59,29.91,29.91,2,2,2,0.00
2013-5-12,61.9,61.2,60.5,56.9,56.6,56.3,87,85,83,30.07,30.06,0,0,0,0.00
2013-5-13,68.0,59.1,48.6,57.1,53.1,46.7,98,82,58,30.19,30.04,6,1,9,0.04
2013-5-14,67.7,56.3,46.5,49.1,43.4,32.1,96,67,27,30.20,30.06,4,1,6,0.00
2013-5-15,50.2,47.8,47.0,45.6,42.8,41.3,87,83,75,30.09,30.06,0,0,0,0.00
2013-5-22,49.7,47.6,46.0,47.8,46.0,44.1,95,94,93,29.99,29.97,2,1,14,0.31
2013-5-23,49.9,46.9,45.1,48.7,45.3,43.4,96,94,92,30.01,29.98,2,1,14,0.19
2013-5-24,60.3,52.8,47.3,50.1,47.7,45.9,97,84,61,30.07,29.98,6,2,7,0.05
2013-5-25,62.2,49.7,44.8,50.5,46.4,44.3,98,89,62,30.07,30.00,2,1,4,0.00
2013-5-28,63.7,58.6,52.1,51.4,49.4,46.5,95,73,57,29.94,29.76,10,3,17,0.13
2013-5-29,59.6,53.9,51.5,53.8,52.0,50.1,98,93,80,29.94,29.67,8,3,18,0.20
2013-9-20,69.5,64.5,58.2,59.0,57.3,56.6,95,78,64,29.72,29.67,4,2,7,0.13
2013-9-21,66.6,60.3,55.5,58.9,56.4,53.7,98,88,67,29.82,29.70,7,1,13,0.06
2013-9-22,62.5,57.8,55.0,58.2,55.0,52.4,97,90,71,29.90,29.72,7,2,23,0.21
2013-9-23,64.1,58.4,55.9,58.2,55.8,54.3,98,91,76,30.01,29.90,5,1,10,0.07
2013-9-24,60.5,54.9,51.1,56.1,53.3,49.7,99,94,78,29.99,29.89,6,1,10,1.15
2013-9-25,63.4,53.2,49.5,53.4,50.1,48.1,98,90,64,30.06,29.89,6,1,9,0.07
2013-9-26,67.7,54.3,47.6,54.5,50.0,47.1,99,87,53,30.19,30.06,4,0,8,0.01
2013-9-27,57.1,52.5,46.3,55.2,50.6,45.5,98,94,82,30.20,29.98,4,2,14,0.36
2013-9-28,67.9,59.9,53.2,61.1,56.7,52.1,97,89,73,29.97,29.55,9,4,25,1.22
2013-9-29,58.0,55.2,53.2,56.5,53.2,50.6,97,93,84,29.75,29.48,13,3,24,1.13
2013-9-30,61.1,54.1,50.5,55.6,50.7,48.3,95,88,75,30.05,29.68,12,3,19,0.30
2013-10-1,61.5,52.7,44.4,53.6,48.2,43.3,97,86,55,30.22,30.02,5,1,11,0.23
2013-10-2,59.1,47.9,41.1,52.1,45.9,40.5,99,93,73,30.21,30.10,4,1,8,0.18
2013-10-3,59.7,48.2,38.7,51.9,44.9,38.2,99,89,59,30.42,30.21,3,0,6,0.00
2013-10-4,62.1,47.6,38.3,53.9,45.2,37.8,99,92,70,30.47,30.33,3,1,8,0.01
2013-10-5,69.3,51.8,41.3,56.0,47.5,40.8,99,87,54,30.35,30.15,2,0,6,0.01
2013-10-6,77.2,55.6,39.9,57.4,47.1,39.4,100,78,32,30.15,29.97,6,1,11,0.00
2013-10-7,63.3,55.6,49.7,55.6,51.1,47.5,98,86,61,30.18,30.01,7,1,14,0.14
2013-10-8,56.2,51.3,46.4,53.4,49.5,45.6,98,94,82,30.19,30.01,6,1,10,0.06
2013-10-9,60.3,48.1,41.4,50.9,45.4,40.9,99,91,60,30.10,29.98,4,1,9,0.00
2013-10-10,64.7,52.1,44.1,53.2,47.6,43.3,98,86,49,30.11,29.97,4,0,10,0.00
2013-10-11,61.6,51.9,44.6,50.5,46.9,43.0,99,84,55,30.16,30.10,2,0,4,0.01
2013-10-12,60.5,50.6,44.3,50.8,47.3,43.2,98,89,64,30.17,30.08,2,0,6,0.00
2013-10-13,59.6,47.7,39.4,51.7,45.4,38.7,99,92,72,30.29,30.17,2,0,6,0.00
2013-10-14,65.0,56.8,44.9,53.4,49.6,44.6,99,78,61,30.37,30.25,4,2,9,0.00
2013-10-15,66.9,56.9,39.9,49.3,44.8,38.4,96,67,44,30.29,30.12,3,1,8,0.01
2013-10-16,66.3,47.3,37.1,51.1,43.7,36.8,99,90,55,30.16,30.10,1,0,4,0.00
2013-10-17,61.2,49.3,41.0,53.5,46.7,40.7,99,92,74,30.24,30.14,3,0,4,0.00
2013-10-18,68.3,48.0,38.4,51.9,44.2,38.1,99,89,50,30.18,30.07,3,0,6,0.01
2013-10-19,68.0,49.8,39.2,55.5,46.7,38.7,99,90,58,30.17,30.09,2,0,6,0.00
2013-10-20,65.5,48.5,40.6,55.3,46.7,40.1,99,94,68,30.16,30.05,2,0,5,0.01
2013-10-21,66.4,50.1,41.2,56.3,47.7,40.7,99,92,69,30.10,29.97,2,0,6,0.01
2013-10-22,69.2,51.0,40.9,58.0,48.4,40.6,99,92,63,30.06,29.95,2,0,4,0.00
2013-10-23,67.1,50.7,41.4,58.4,49.0,41.1,99,94,71,30.02,29.94,2,0,3,0.01
2013-10-24,59.5,49.4,44.1,55.4,48.7,43.8,99,97,86,30.09,30.00,1,0,3,0.01
2013-10-25,52.2,51.0,48.8,51.3,50.4,48.8,100,98,96,30.28,30.21,4,1,7,0.02
2013-10-26,51.9,50.4,49.5,50.4,49.4,48.6,99,96,92,30.28,30.17,4,1,8,0.01
2013-10-27,56.2,49.9,44.9,50.7,47.8,42.8,99,92,78,30.18,29.83,4,1,12,0.24
2013-10-28,58.6,47.3,38.9,48.2,40.9,33.9,99,80,51,29.91,29.78,6,2,14,0.00
2013-10-29,57.7,41.8,29.7,40.5,35.5,29.0,98,80,45,30.08,29.91,3,0,5,0.00
2013-10-30,58.9,40.4,31.7,45.7,37.2,30.9,99,89,57,30.20,30.08,3,0,5,0.00
2013-10-31,56.6,53.5,48.2,54.7,51.3,47.7,99,92,83,30.27,30.20,2,0,8,0.03
2013-11-1,56.1,50.9,48.1,51.7,49.5,47.6,99,95,83,30.28,29.94,4,1,7,0.00
2013-11-2,56.2,51.2,45.1,52.9,47.3,42.2,98,87,61,30.13,29.81,12,3,22,0.36
2013-11-3,50.9,46.2,42.2,47.2,44.0,41.1,97,92,77,30.21,30.12,4,1,10,0.12
2013-11-4,52.2,47.4,44.9,47.3,44.8,43.6,97,91,77,30.20,30.15,5,2,14,0.05
2013-11-5,54.7,54.2,53.6,53.3,52.9,52.5,97,96,93,30.25,30.18,3,1,9,0.37
2013-11-6,55.4,55.0,54.5,54.8,53.6,53.1,98,95,94,30.28,30.25,2,1,6,0.00
2013-11-7,57.1,52.6,46.4,56.2,50.7,44.8,100,93,80,30.16,29.95,9,2,16,0.35
2013-11-8,48.3,48.1,47.9,46.4,46.2,45.8,93,93,92,30.19,30.16,3,2,9,0.00
2013-11-10,51.7,46.4,42.7,49.5,45.8,42.3,100,98,92,30.09,30.04,3,0,5,0.01
2013-11-11,47.6,45.7,44.3,47.6,45.7,44.1,100,100,99,30.15,30.02,2,0,6,0.01
2013-11-12,59.3,51.1,46.3,56.8,50.6,46.3,100,98,91,30.43,30.10,2,0,6,0.29
2013-11-13,51.2,49.0,48.3,51.2,49.0,48.1,100,100,99,30.48,30.42,1,0,2,0.01
2013-11-16,52.5,49.0,46.8,46.3,44.5,43.2,92,84,74,29.90,29.77,9,2,0,0.12
2013-11-17,55.2,50.2,45.1,48.0,45.9,42.9,95,85,74,30.04,29.90,7,2,0,0.00
2013-11-18,52.6,49.5,45.4,50.6,46.8,43.5,97,91,80,30.00,29.77,5,2,9,0.28
2013-11-19,52.4,47.9,41.5,51.5,46.0,34.8,97,93,77,30.01,29.76,8,3,12,0.14
2013-11-20,45.2,37.5,31.4,38.3,33.3,27.4,95,85,73,30.35,30.01,11,3,13,0.00
2013-11-21,45.7,34.5,27.7,30.2,24.7,21.4,89,69,42,30.56,30.35,11,2,14,0.00
2013-11-22,48.0,33.4,23.9,32.3,25.0,21.2,92,72,48,30.56,30.37,6,1,11,0.00
2013-11-23,50.9,38.5,29.3,33.9,27.4,23.0,80,65,48,30.37,30.16,5,1,10,0.00
2013-11-24,49.2,35.9,25.9,35.5,30.7,24.9,97,83,53,30.29,30.17,2,0,3,0.00
2013-11-25,48.2,33.8,24.6,39.9,31.5,23.9,98,92,70,30.36,30.29,1,0,3,0.00
2013-11-26,41.8,31.3,28.6,40.4,30.9,28.1,99,98,96,30.30,30.17,2,0,3,0.00
2013-11-27,47.4,39.6,32.0,42.5,37.1,31.8,99,91,71,30.05,29.95,3,0,5,0.01
2013-11-28,47.7,35.4,27.8,40.6,33.5,27.3,99,93,71,30.23,30.03,3,0,5,0.00
2013-11-29,36.5,29.2,26.9,35.6,28.7,26.4,99,98,97,30.34,30.22,0,0,0,0.00
2013-11-30,51.5,48.1,43.7,48.1,46.0,42.4,99,92,85,30.34,30.27,4,1,7,0.00
2013-12-1,55.8,53.9,51.0,54.9,51.7,46.6,98,92,81,30.27,30.01,8,6,20,0.35
2013-12-2,52.8,44.1,35.4,52.3,41.6,34.6,98,91,77,30.08,29.95,12,4,17,0.75
2013-12-3,40.9,34.6,27.4,37.9,32.2,22.9,99,91,71,30.26,30.07,4,1,9,0.01
2013-12-4,37.3,28.5,22.1,27.5,23.2,20.4,94,81,52,30.33,30.26,5,1,8,0.00
2013-12-5,31.6,24.9,17.7,23.9,21.0,16.3,95,85,68,30.31,30.17,1,0,3,0.00
2013-12-6,27.6,26.2,23.8,25.9,23.7,18.5,96,90,75,30.17,29.94,7,2,12,0.00
2013-12-7,28.2,20.1,9.7,18.4,13.0,7.7,92,75,55,30.45,30.05,4,1,9,0.00
2013-12-8,22.9,14.7,2.6,17.2,11.3,0.1,94,87,68,30.64,30.45,2,0,4,0.00
2013-12-9,28.9,19.2,7.6,23.4,16.2,5.6,94,88,76,30.67,30.57,2,0,4,0.00
2013-12-10,32.7,25.4,19.7,28.1,23.0,18.5,96,91,80,30.58,30.43,3,0,4,0.00
2013-12-11,27.5,21.4,18.2,26.8,20.3,17.0,97,95,95,30.43,30.23,2,0,4,0.00
2013-12-12,42.5,31.4,18.2,41.9,30.6,16.8,99,97,94,30.25,30.14,4,1,12,0.16
2013-12-13,43.8,41.5,40.1,42.3,40.6,39.6,98,97,94,30.40,30.25,3,1,4,0.00
2013-12-16,43.5,41.0,39.1,42.7,40.6,39.1,100,99,97,30.35,30.26,2,0,5,0.02
2013-12-17,39.2,37.3,35.5,39.1,37.2,35.2,100,99,98,30.26,30.19,2,0,5,0.01
2013-12-18,40.8,38.0,34.2,40.6,37.8,33.7,100,99,94,30.21,30.06,8,0,12,0.10
2013-12-19,36.1,32.5,28.8,34.5,31.8,28.6,100,97,93,30.33,30.15,3,0,7,0.00
2013-12-20,46.2,38.8,32.4,45.4,37.4,31.6,97,95,86,30.26,29.97,7,3,18,0.04
2013-12-21,54.2,48.7,46.1,50.4,47.1,45.4,99,94,84,30.27,30.00,4,1,11,0.01
2013-12-22,56.3,49.6,42.8,51.9,47.9,42.4,99,94,84,30.37,30.26,4,1,9,0.01
2013-12-23,53.1,46.7,36.5,51.0,45.7,36.1,100,96,91,30.54,30.34,5,2,12,0.11
2013-12-24,40.2,35.6,32.6,40.2,35.5,32.4,100,100,99,30.61,30.49,4,1,7,0.01
2013-12-25,36.1,34.9,33.2,36.1,34.8,33.2,100,100,99,30.50,30.41,2,1,5,0.00
2013-12-30,42.7,39.7,36.3,40.8,38.8,35.8,100,96,92,30.26,30.20,3,0,4,0.00
2013-12-31,50.4,40.9,35.8,45.6,39.7,35.5,100,96,81,30.35,30.25,3,0,4,0.01
2014-1-1,39.7,37.4,32.7,39.7,37.4,32.5,100,100,99,30.38,30.29,2,0,4,0.01
2014-1-2,50.7,40.2,35.2,45.4,39.6,35.2,100,98,81,30.30,30.09,5,1,8,0.01